createdAt,value
2022-11-03T00:00:16.561Z,76.16
2022-11-03T00:01:16.642Z,76.36
2022-11-03T00:02:16.675Z,76.26
2022-11-03T00:03:16.534Z,76.26
2022-11-03T00:04:16.509Z,76.26
2022-11-03T00:05:16.490Z,76.56
2022-11-03T00:06:16.484Z,76.56
2022-11-03T00:07:16.492Z,76.56
2022-11-03T00:08:16.454Z,76.26
2022-11-03T00:09:16.442Z,76.36
2022-11-03T00:10:16.421Z,76.36
2022-11-03T00:11:16.418Z,76.46
2022-11-03T00:12:16.421Z,76.77
2022-11-03T00:13:16.390Z,76.77
2022-11-03T00:14:16.373Z,76.87
2022-11-03T00:15:16.364Z,76.77
2022-11-03T00:16:16.343Z,76.77
2022-11-03T00:17:16.352Z,76.77
2022-11-03T00:18:16.322Z,76.87
2022-11-03T00:19:16.358Z,76.97
2022-11-03T00:20:16.311Z,77.08
2022-11-03T00:21:16.281Z,77.18
2022-11-03T00:22:16.274Z,77.28
2022-11-03T00:23:16.263Z,77.28
2022-11-03T00:24:16.264Z,77.28
2022-11-03T00:25:16.267Z,77.48
2022-11-03T00:26:16.390Z,77.28
2022-11-03T00:27:16.244Z,77.18
2022-11-03T00:28:16.196Z,77.28
2022-11-03T00:29:16.174Z,77.48
2022-11-03T00:30:16.155Z,77.69
2022-11-03T00:31:16.146Z,77.79
2022-11-03T00:32:16.147Z,77.89
2022-11-03T00:33:16.123Z,77.79
2022-11-03T00:34:16.109Z,77.79
2022-11-03T00:35:16.092Z,77.89
2022-11-03T00:36:16.082Z,77.69
2022-11-03T00:37:16.098Z,77.59
2022-11-03T00:38:16.067Z,78.00
2022-11-03T00:39:16.086Z,78.30
2022-11-03T00:40:16.061Z,78.09
2022-11-03T00:41:16.074Z,78.30
2022-11-03T00:42:16.056Z,78.20
2022-11-03T00:43:15.988Z,78.09
2022-11-03T00:44:15.967Z,78.41
2022-11-03T00:45:15.964Z,78.50
2022-11-03T00:46:15.941Z,78.30
2022-11-03T00:47:18.887Z,78.41
2022-11-03T00:48:16.909Z,78.50
2022-11-03T00:49:15.917Z,78.30
2022-11-03T00:50:15.887Z,78.41
2022-11-03T00:51:15.968Z,78.41
2022-11-03T00:52:15.869Z,78.61
2022-11-03T00:53:15.851Z,78.61
2022-11-03T00:54:15.827Z,78.61
2022-11-03T00:55:15.888Z,78.71
2022-11-03T00:56:15.850Z,78.81
2022-11-03T00:57:15.808Z,78.71
2022-11-03T00:58:15.780Z,78.61
2022-11-03T00:59:15.780Z,78.61
2022-11-03T01:00:15.748Z,78.81
2022-11-03T01:01:15.834Z,78.61
2022-11-03T01:02:15.857Z,78.61
2022-11-03T01:03:15.708Z,78.81
2022-11-03T01:04:15.701Z,78.81
2022-11-03T01:05:15.692Z,79.02
2022-11-03T01:06:15.669Z,79.12
2022-11-03T01:07:15.678Z,79.02
2022-11-03T01:08:15.640Z,78.91
2022-11-03T01:09:15.640Z,79.12
2022-11-03T01:10:15.609Z,79.43
2022-11-03T01:11:15.610Z,79.43
2022-11-03T01:12:15.600Z,79.32
2022-11-03T01:13:15.579Z,79.32
2022-11-03T01:14:15.560Z,79.32
2022-11-03T01:15:15.551Z,79.52
2022-11-03T01:16:15.532Z,79.57
2022-11-03T01:17:15.547Z,79.63
2022-11-03T01:18:15.501Z,79.73
2022-11-03T01:19:15.501Z,79.73
2022-11-03T01:20:15.482Z,79.73
2022-11-03T01:21:15.471Z,79.77
2022-11-03T01:22:15.462Z,79.73
2022-11-03T01:23:15.451Z,79.87
2022-11-03T01:24:15.425Z,79.73
2022-11-03T01:25:15.422Z,79.93
2022-11-03T01:26:15.400Z,79.93
2022-11-03T01:27:15.406Z,79.93
2022-11-03T01:28:15.371Z,79.93
2022-11-03T01:29:15.370Z,79.93
2022-11-03T01:30:15.342Z,79.93
2022-11-03T01:31:15.332Z,79.97
2022-11-03T01:32:15.338Z,80.38
2022-11-03T01:33:15.305Z,80.18
2022-11-03T01:34:15.284Z,80.38
2022-11-03T01:35:15.283Z,80.38
2022-11-03T01:36:15.263Z,80.38
2022-11-03T01:37:15.274Z,80.48
2022-11-03T01:38:15.236Z,80.69
2022-11-03T01:39:15.234Z,80.69
2022-11-03T01:40:15.215Z,80.79
2022-11-03T01:41:15.197Z,80.69
2022-11-03T01:42:15.244Z,80.58
2022-11-03T01:43:15.164Z,80.69
2022-11-03T01:44:15.165Z,80.69
2022-11-03T01:45:15.135Z,80.69
2022-11-03T01:46:15.133Z,80.79
2022-11-03T01:47:15.132Z,80.79
2022-11-03T01:48:15.105Z,80.89
2022-11-03T01:49:15.110Z,81.10
2022-11-03T01:50:15.075Z,81.10
2022-11-03T01:51:15.055Z,81.10
2022-11-03T01:52:15.067Z,81.10
2022-11-03T01:53:15.038Z,81.30
2022-11-03T01:54:15.026Z,81.30
2022-11-03T01:55:15.010Z,81.30
2022-11-03T01:56:14.999Z,81.40
2022-11-03T01:57:14.994Z,81.40
2022-11-03T01:58:14.969Z,81.51
2022-11-03T01:59:14.993Z,81.51
2022-11-03T02:00:14.937Z,81.40
2022-11-03T02:01:14.986Z,81.71
2022-11-03T02:02:15.004Z,81.60
2022-11-03T02:03:14.899Z,81.60
2022-11-03T02:04:14.887Z,81.51
2022-11-03T02:05:14.867Z,81.81
2022-11-03T02:06:14.858Z,81.60
2022-11-03T02:07:14.858Z,81.71
2022-11-03T02:08:14.841Z,81.81
2022-11-03T02:09:14.817Z,81.71
2022-11-03T02:10:14.806Z,81.81
2022-11-03T02:11:14.791Z,81.71
2022-11-03T02:12:14.799Z,81.71
2022-11-03T02:13:14.771Z,81.71
2022-11-03T02:14:14.764Z,81.81
2022-11-03T02:15:14.738Z,81.60
2022-11-03T02:16:14.719Z,81.71
2022-11-03T02:17:14.727Z,81.91
2022-11-03T02:18:14.699Z,81.91
2022-11-03T02:19:14.691Z,81.91
2022-11-03T02:20:14.669Z,81.91
2022-11-03T02:21:14.671Z,82.01
2022-11-03T02:22:14.660Z,82.12
2022-11-03T02:23:14.629Z,82.01
2022-11-03T02:24:14.621Z,82.01
2022-11-03T02:25:14.609Z,82.22
2022-11-03T02:26:14.591Z,82.01
2022-11-03T02:27:14.588Z,82.32
2022-11-03T02:28:14.560Z,82.32
2022-11-03T02:29:14.550Z,82.22
2022-11-03T02:30:14.541Z,82.22
2022-11-03T02:31:14.515Z,82.32
2022-11-03T02:32:14.523Z,82.32
2022-11-03T02:33:14.492Z,82.53
2022-11-03T02:34:14.481Z,82.53
2022-11-03T02:35:14.463Z,82.53
2022-11-03T02:36:14.473Z,82.42
2022-11-03T02:37:14.523Z,82.42
2022-11-03T02:38:14.423Z,82.53
2022-11-03T02:39:14.421Z,82.53
2022-11-03T02:40:14.401Z,82.53
2022-11-03T02:41:14.396Z,82.53
2022-11-03T02:42:14.384Z,82.53
2022-11-03T02:43:14.352Z,82.39
2022-11-03T02:44:14.343Z,82.53
2022-11-03T02:45:17.323Z,82.63
2022-11-03T02:46:14.322Z,82.49
2022-11-03T02:47:14.314Z,82.63
2022-11-03T02:48:14.301Z,82.63
2022-11-03T02:49:14.341Z,82.73
2022-11-03T02:50:14.263Z,82.59
2022-11-03T02:51:14.244Z,82.59
2022-11-03T02:52:14.253Z,82.59
2022-11-03T02:53:14.223Z,82.59
2022-11-03T02:54:14.213Z,82.49
2022-11-03T02:55:14.195Z,82.59
2022-11-03T02:56:14.192Z,82.69
2022-11-03T02:57:14.184Z,82.59
2022-11-03T02:58:14.155Z,82.59
2022-11-03T02:59:14.151Z,82.69
2022-11-03T03:00:14.147Z,82.69
2022-11-03T03:01:14.234Z,82.79
2022-11-03T03:02:14.244Z,82.79
2022-11-03T03:03:14.095Z,82.79
2022-11-03T03:04:14.075Z,82.89
2022-11-03T03:05:14.080Z,82.89
2022-11-03T03:06:14.088Z,82.89
2022-11-03T03:07:14.118Z,82.89
2022-11-03T03:08:14.026Z,82.89
2022-11-03T03:09:14.015Z,82.89
2022-11-03T03:10:14.058Z,83.00
2022-11-03T03:11:13.976Z,83.00
2022-11-03T03:12:13.986Z,83.20
2022-11-03T03:13:13.955Z,83.20
2022-11-03T03:14:13.947Z,83.20
2022-11-03T03:15:13.927Z,83.30
2022-11-03T03:16:13.917Z,83.30
2022-11-03T03:17:13.920Z,83.30
2022-11-03T03:18:13.887Z,83.40
2022-11-03T03:19:13.878Z,83.30
2022-11-03T03:20:13.859Z,83.30
2022-11-03T03:21:13.838Z,83.30
2022-11-03T03:22:13.857Z,83.40
2022-11-03T03:23:14.232Z,83.51
2022-11-03T03:24:13.809Z,83.51
2022-11-03T03:25:13.788Z,83.61
2022-11-03T03:26:13.777Z,83.61
2022-11-03T03:27:13.778Z,83.71
2022-11-03T03:28:13.749Z,83.71
2022-11-03T03:29:13.741Z,83.71
2022-11-03T03:30:13.740Z,83.71
2022-11-03T03:31:13.709Z,83.71
2022-11-03T03:32:13.719Z,83.71
2022-11-03T03:33:13.763Z,83.81
2022-11-03T03:34:33.381Z,83.81
2022-11-03T03:35:14.658Z,83.92
2022-11-03T03:36:13.650Z,83.81
2022-11-03T03:37:13.660Z,83.71
2022-11-03T03:38:13.621Z,83.81
2022-11-03T03:39:13.609Z,83.81
2022-11-03T03:40:13.591Z,83.81
2022-11-03T03:41:13.573Z,83.92
2022-11-03T03:42:13.581Z,83.92
2022-11-03T03:43:13.550Z,84.01
2022-11-03T03:44:13.550Z,84.12
2022-11-03T03:45:13.522Z,84.12
2022-11-03T03:46:13.522Z,84.01
2022-11-03T03:47:13.513Z,84.01
2022-11-03T03:48:13.491Z,83.92
2022-11-03T03:49:13.475Z,83.92
2022-11-03T03:50:13.462Z,83.92
2022-11-03T03:51:13.441Z,84.22
2022-11-03T03:52:13.459Z,84.33
2022-11-03T03:53:13.414Z,84.33
2022-11-03T03:54:13.413Z,84.33
2022-11-03T03:55:13.420Z,84.42
2022-11-03T03:56:13.383Z,84.42
2022-11-03T03:57:13.373Z,84.42
2022-11-03T03:58:13.362Z,84.42
2022-11-03T03:59:13.354Z,84.63
2022-11-03T04:00:13.332Z,84.42
2022-11-03T04:01:13.435Z,84.42
2022-11-03T04:02:13.449Z,84.33
2022-11-03T04:03:13.281Z,84.33
2022-11-03T04:04:13.264Z,84.33
2022-11-03T04:05:13.262Z,84.18
2022-11-03T04:06:13.252Z,84.18
2022-11-03T04:07:13.256Z,84.18
2022-11-03T04:08:13.214Z,84.28
2022-11-03T04:09:13.220Z,84.18
2022-11-03T04:10:13.196Z,84.18
2022-11-03T04:11:13.176Z,84.18
2022-11-03T04:12:13.183Z,84.18
2022-11-03T04:13:13.147Z,84.28
2022-11-03T04:14:13.143Z,84.18
2022-11-03T04:15:13.163Z,84.28
2022-11-03T04:16:13.124Z,84.18
2022-11-03T04:17:13.115Z,84.18
2022-11-03T04:18:13.087Z,84.28
2022-11-03T04:19:13.076Z,84.18
2022-11-03T04:20:13.065Z,84.59
2022-11-03T04:21:13.053Z,84.59
2022-11-03T04:22:13.046Z,84.49
2022-11-03T04:23:13.018Z,84.49
2022-11-03T04:24:12.996Z,84.49
2022-11-03T04:25:12.997Z,84.59
2022-11-03T04:26:12.978Z,84.59
2022-11-03T04:27:12.978Z,84.49
2022-11-03T04:28:12.946Z,84.39
2022-11-03T04:29:12.938Z,84.18
2022-11-03T04:30:12.928Z,84.28
2022-11-03T04:31:12.907Z,84.18
2022-11-03T04:32:12.917Z,83.98
2022-11-03T04:33:12.881Z,84.18
2022-11-03T04:34:12.878Z,84.28
2022-11-03T04:35:12.852Z,84.18
2022-11-03T04:36:12.839Z,84.18
2022-11-03T04:37:12.838Z,84.18
2022-11-03T04:38:12.820Z,84.18
2022-11-03T04:39:12.809Z,84.49
2022-11-03T04:40:12.798Z,84.49
2022-11-03T04:41:12.774Z,84.39
2022-11-03T04:42:12.780Z,84.39
2022-11-03T04:43:12.778Z,84.28
2022-11-03T04:44:12.730Z,84.39
2022-11-03T04:45:12.717Z,84.28
2022-11-03T04:46:12.711Z,84.39
2022-11-03T04:47:12.699Z,84.49
2022-11-03T04:48:12.687Z,84.28
2022-11-03T04:49:12.687Z,84.39
2022-11-03T04:50:12.654Z,84.39
2022-11-03T04:51:12.639Z,84.39
2022-11-03T04:52:12.641Z,84.49
2022-11-03T04:53:12.610Z,84.39
2022-11-03T04:54:12.600Z,84.39
2022-11-03T04:55:12.581Z,84.39
2022-11-03T04:56:12.580Z,84.39
2022-11-03T04:57:12.570Z,84.49
2022-11-03T04:58:12.549Z,84.69
2022-11-03T04:59:12.539Z,84.59
2022-11-03T05:00:12.532Z,84.59
2022-11-03T05:01:12.557Z,84.59
2022-11-03T05:02:12.535Z,84.49
2022-11-03T05:03:12.587Z,84.69
2022-11-03T05:04:12.462Z,84.80
2022-11-03T05:05:12.451Z,84.80
2022-11-03T05:06:12.455Z,84.94
2022-11-03T05:07:12.441Z,84.94
2022-11-03T05:08:12.431Z,84.94
2022-11-03T05:09:12.401Z,85.10
2022-11-03T05:10:12.382Z,85.04
2022-11-03T05:11:12.368Z,85.04
2022-11-03T05:12:12.375Z,85.14
2022-11-03T05:13:12.343Z,85.14
2022-11-03T05:14:12.331Z,85.24
2022-11-03T05:15:12.313Z,85.24
2022-11-03T05:16:12.303Z,85.45
2022-11-03T05:17:12.313Z,85.55
2022-11-03T05:18:12.285Z,85.45
2022-11-03T05:19:12.263Z,85.45
2022-11-03T05:20:12.255Z,85.45
2022-11-03T05:21:12.257Z,85.35
2022-11-03T05:22:12.247Z,85.45
2022-11-03T05:23:12.224Z,85.55
2022-11-03T05:24:12.278Z,85.45
2022-11-03T05:25:12.184Z,85.45
2022-11-03T05:26:12.166Z,85.35
2022-11-03T05:27:12.172Z,85.35
2022-11-03T05:28:12.146Z,85.30
2022-11-03T05:29:12.125Z,85.30
2022-11-03T05:30:12.115Z,85.41
2022-11-03T05:31:12.097Z,85.21
2022-11-03T05:32:12.107Z,85.10
2022-11-03T05:33:12.084Z,85.00
2022-11-03T05:34:12.080Z,85.00
2022-11-03T05:35:12.046Z,85.00
2022-11-03T05:36:12.103Z,85.10
2022-11-03T05:37:12.072Z,85.21
2022-11-03T05:38:12.006Z,85.30
2022-11-03T05:39:11.996Z,85.21
2022-11-03T05:40:11.986Z,85.10
2022-11-03T05:41:12.001Z,85.10
2022-11-03T05:42:11.985Z,85.10
2022-11-03T05:43:12.363Z,85.14
2022-11-03T05:44:11.927Z,85.00
2022-11-03T05:45:11.917Z,85.10
2022-11-03T05:46:11.901Z,85.00
2022-11-03T05:47:11.898Z,85.00
2022-11-03T05:48:11.876Z,85.00
2022-11-03T05:49:11.857Z,85.00
2022-11-03T05:50:11.847Z,84.90
2022-11-03T05:51:11.829Z,85.00
2022-11-03T05:52:11.836Z,85.10
2022-11-03T05:53:11.799Z,85.00
2022-11-03T05:54:16.948Z,85.41
2022-11-03T05:55:12.770Z,85.10
2022-11-03T05:56:11.758Z,85.21
2022-11-03T05:57:11.771Z,85.30
2022-11-03T05:58:11.769Z,85.10
2022-11-03T05:59:11.728Z,85.10
2022-11-03T06:01:21.581Z,85.00
2022-11-03T06:02:21.607Z,85.10
2022-11-03T06:03:21.496Z,85.00
2022-11-03T06:04:21.477Z,84.90
2022-11-03T06:05:21.459Z,85.00
2022-11-03T06:06:21.446Z,85.00
2022-11-03T06:07:21.456Z,84.90
2022-11-03T06:08:21.493Z,84.80
2022-11-03T06:09:21.406Z,84.90
2022-11-03T06:10:21.397Z,84.80
2022-11-03T06:11:21.376Z,84.80
2022-11-03T06:12:21.385Z,84.80
2022-11-03T06:13:21.355Z,84.80
2022-11-03T06:14:24.003Z,84.80
2022-11-03T06:15:21.326Z,84.69
2022-11-03T06:16:21.317Z,84.69
2022-11-03T06:17:21.317Z,84.59
2022-11-03T06:18:21.286Z,84.69
2022-11-03T06:19:21.268Z,84.59
2022-11-03T06:20:21.260Z,84.59
2022-11-03T06:21:21.240Z,84.49
2022-11-03T06:22:21.237Z,84.80
2022-11-03T06:23:21.218Z,84.59
2022-11-03T06:24:21.208Z,84.39
2022-11-03T06:25:21.189Z,84.39
2022-11-03T06:26:21.178Z,84.39
2022-11-03T06:27:21.179Z,84.28
2022-11-03T06:28:21.149Z,84.59
2022-11-03T06:29:21.129Z,84.55
2022-11-03T06:30:21.134Z,84.39
2022-11-03T06:31:23.152Z,84.49
2022-11-03T06:32:21.117Z,84.59
2022-11-03T06:33:21.079Z,84.39
2022-11-03T06:34:21.070Z,84.18
2022-11-03T06:35:21.051Z,84.18
2022-11-03T06:36:21.040Z,84.18
2022-11-03T06:37:21.041Z,84.14
2022-11-03T06:38:21.020Z,84.04
2022-11-03T06:39:21.010Z,84.04
2022-11-03T06:40:20.992Z,84.14
2022-11-03T06:41:20.973Z,84.14
2022-11-03T06:42:20.981Z,84.14
2022-11-03T06:43:20.950Z,84.04
2022-11-03T06:44:20.934Z,84.04
2022-11-03T06:45:20.912Z,83.94
2022-11-03T06:46:20.912Z,83.94
2022-11-03T06:47:20.901Z,83.84
2022-11-03T06:48:20.881Z,83.84
2022-11-03T06:49:20.861Z,84.04
2022-11-03T06:50:20.863Z,83.84
2022-11-03T06:51:20.841Z,83.84
2022-11-03T06:52:20.850Z,83.73
2022-11-03T06:53:20.818Z,83.84
2022-11-03T06:54:20.802Z,83.84
2022-11-03T06:55:20.793Z,83.84
2022-11-03T06:56:20.831Z,83.94
2022-11-03T06:57:20.860Z,83.94
2022-11-03T06:58:20.766Z,83.94
2022-11-03T06:59:20.736Z,84.04
2022-11-03T07:00:33.588Z,83.94
2022-11-03T07:01:21.801Z,83.84
2022-11-03T07:02:20.887Z,83.84
2022-11-03T07:03:20.673Z,83.84
2022-11-03T07:04:20.685Z,83.63
2022-11-03T07:05:20.659Z,83.63
2022-11-03T07:06:20.636Z,83.84
2022-11-03T07:07:20.651Z,83.63
2022-11-03T07:08:20.616Z,83.53
2022-11-03T07:09:20.595Z,83.63
2022-11-03T07:10:20.584Z,83.73
2022-11-03T07:11:20.585Z,83.63
2022-11-03T07:12:20.575Z,83.63
2022-11-03T07:13:20.545Z,83.43
2022-11-03T07:14:20.548Z,83.63
2022-11-03T07:15:20.526Z,83.59
2022-11-03T07:16:20.513Z,83.39
2022-11-03T07:17:20.514Z,83.39
2022-11-03T07:18:20.497Z,83.29
2022-11-03T07:19:20.467Z,83.29
2022-11-03T07:20:20.456Z,83.29
2022-11-03T07:21:20.436Z,83.29
2022-11-03T07:22:20.446Z,83.18
2022-11-03T07:23:20.406Z,83.18
2022-11-03T07:24:20.408Z,82.98
2022-11-03T07:25:20.537Z,82.98
2022-11-03T07:26:20.377Z,83.18
2022-11-03T07:27:20.376Z,83.09
2022-11-03T07:28:20.357Z,82.98
2022-11-03T07:29:20.336Z,82.98
2022-11-03T07:30:20.340Z,82.78
2022-11-03T07:31:20.306Z,82.88
2022-11-03T07:32:20.332Z,82.78
2022-11-03T07:33:20.288Z,82.74
2022-11-03T07:34:20.268Z,82.74
2022-11-03T07:35:20.248Z,82.64
2022-11-03T07:36:20.246Z,82.43
2022-11-03T07:37:20.246Z,82.43
2022-11-03T07:38:20.219Z,82.43
2022-11-03T07:39:20.206Z,82.33
2022-11-03T07:40:20.193Z,82.09
2022-11-03T07:41:20.179Z,82.19
2022-11-03T07:42:20.181Z,81.88
2022-11-03T07:43:20.152Z,81.58
2022-11-03T07:44:20.130Z,81.79
2022-11-03T07:45:20.122Z,81.68
2022-11-03T07:46:20.136Z,81.58
2022-11-03T07:47:20.098Z,81.48
2022-11-03T07:48:20.085Z,81.68
2022-11-03T07:49:20.070Z,81.68
2022-11-03T07:50:20.060Z,81.58
2022-11-03T07:51:20.135Z,81.48
2022-11-03T07:52:20.042Z,81.48
2022-11-03T07:53:25.681Z,81.38
2022-11-03T07:54:21.008Z,81.58
2022-11-03T07:55:19.995Z,81.88
2022-11-03T07:56:20.112Z,81.99
2022-11-03T07:57:19.960Z,81.99
2022-11-03T07:58:19.951Z,81.74
2022-11-03T07:59:19.985Z,81.65
2022-11-03T08:00:19.933Z,81.17
2022-11-03T08:01:19.955Z,81.13
2022-11-03T08:02:19.964Z,81.34
2022-11-03T08:03:20.029Z,81.44
2022-11-03T08:04:19.872Z,81.24
2022-11-03T08:06:20.101Z,81.13
2022-11-03T08:07:19.823Z,81.07
2022-11-03T08:08:19.813Z,81.34
2022-11-03T08:09:19.794Z,81.24
2022-11-03T08:10:19.791Z,81.24
2022-11-03T08:11:21.976Z,81.54
2022-11-03T08:12:19.764Z,81.54
2022-11-03T08:13:19.746Z,81.54
2022-11-03T08:14:19.736Z,81.24
2022-11-03T08:15:19.723Z,81.48
2022-11-03T08:16:19.727Z,81.54
2022-11-03T08:17:19.684Z,81.65
2022-11-03T08:18:19.686Z,81.44
2022-11-03T08:19:19.664Z,81.44
2022-11-03T08:20:19.655Z,81.54
2022-11-03T08:21:19.673Z,81.44
2022-11-03T08:22:19.628Z,81.34
2022-11-03T08:23:25.625Z,81.24
2022-11-03T08:24:20.606Z,81.24
2022-11-03T08:25:19.587Z,81.34
2022-11-03T08:26:19.598Z,81.44
2022-11-03T08:27:19.556Z,81.34
2022-11-03T08:28:19.547Z,81.13
2022-11-03T08:29:19.538Z,81.30
2022-11-03T08:30:19.530Z,81.04
2022-11-03T08:31:19.523Z,81.30
2022-11-03T08:32:19.495Z,80.93
2022-11-03T08:33:19.536Z,80.83
2022-11-03T08:34:19.468Z,81.13
2022-11-03T08:35:19.459Z,81.44
2022-11-03T08:36:19.438Z,81.51
2022-11-03T08:37:19.439Z,81.30
2022-11-03T08:38:19.417Z,80.99
2022-11-03T08:39:19.398Z,80.99
2022-11-03T08:40:19.389Z,81.20
2022-11-03T08:41:19.367Z,80.99
2022-11-03T08:42:19.379Z,80.79
2022-11-03T08:43:19.347Z,80.79
2022-11-03T08:44:19.339Z,80.99
2022-11-03T08:45:19.318Z,80.76
2022-11-03T08:46:19.318Z,80.55
2022-11-03T08:47:19.310Z,80.65
2022-11-03T08:48:19.281Z,80.76
2022-11-03T08:49:19.261Z,80.65
2022-11-03T08:50:19.257Z,80.45
2022-11-03T08:51:19.242Z,80.45
2022-11-03T08:52:19.240Z,80.35
2022-11-03T08:53:19.221Z,80.65
2022-11-03T08:54:19.203Z,80.65
2022-11-03T08:55:19.193Z,80.65
2022-11-03T08:56:22.102Z,80.45
2022-11-03T08:57:19.183Z,80.45
2022-11-03T08:58:19.141Z,80.76
2022-11-03T08:59:19.142Z,80.76
2022-11-03T09:00:19.122Z,80.65
2022-11-03T09:01:19.239Z,80.35
2022-11-03T09:02:19.153Z,80.35
2022-11-03T09:03:19.212Z,80.24
2022-11-03T09:04:19.073Z,80.65
2022-11-03T09:05:19.063Z,80.35
2022-11-03T09:06:19.049Z,80.72
2022-11-03T09:07:19.283Z,80.72
2022-11-03T09:10:22.135Z,79.90
2022-11-03T09:11:18.978Z,79.90
2022-11-03T09:12:18.972Z,80.11
2022-11-03T09:13:18.954Z,79.90
2022-11-03T09:14:18.934Z,79.80
2022-11-03T09:15:18.923Z,79.60
2022-11-03T09:16:18.906Z,79.66
2022-11-03T09:17:18.915Z,79.86
2022-11-03T09:18:18.883Z,79.66
2022-11-03T09:19:18.866Z,79.46
2022-11-03T09:20:18.856Z,79.66
2022-11-03T09:21:18.844Z,79.56
2022-11-03T09:22:18.845Z,79.16
2022-11-03T09:23:18.815Z,79.05
2022-11-03T09:24:18.795Z,79.36
2022-11-03T09:25:18.787Z,78.95
2022-11-03T09:26:18.765Z,78.64
2022-11-03T09:27:18.776Z,78.71
2022-11-03T09:28:18.745Z,78.51
2022-11-03T09:29:18.735Z,78.51
2022-11-03T09:30:18.718Z,78.61
2022-11-03T09:31:18.705Z,78.61
2022-11-03T09:32:23.009Z,78.30
2022-11-03T09:33:18.684Z,78.30
2022-11-03T09:34:18.665Z,78.61
2022-11-03T09:35:18.666Z,78.71
2022-11-03T09:36:18.637Z,78.61
2022-11-03T09:37:18.638Z,78.51
2022-11-03T09:38:18.608Z,78.41
2022-11-03T09:39:18.598Z,78.61
2022-11-03T09:40:18.578Z,78.41
2022-11-03T09:41:26.556Z,78.20
2022-11-03T09:42:19.577Z,78.30
2022-11-03T09:43:18.552Z,78.41
2022-11-03T09:44:18.529Z,78.30
2022-11-03T09:45:18.522Z,78.61
2022-11-03T09:46:18.499Z,78.37
2022-11-03T09:47:18.508Z,77.86
2022-11-03T09:48:18.479Z,77.86
2022-11-03T09:49:18.471Z,77.76
2022-11-03T09:50:18.449Z,77.76
2022-11-03T09:51:18.440Z,77.66
2022-11-03T09:52:19.383Z,77.56
2022-11-03T09:53:18.415Z,77.36
2022-11-03T09:54:18.412Z,77.45
2022-11-03T09:55:18.403Z,77.62
2022-11-03T09:56:18.377Z,77.52
2022-11-03T09:57:18.370Z,77.36
2022-11-03T09:58:18.342Z,76.95
2022-11-03T09:59:18.331Z,76.81
2022-11-03T10:00:18.337Z,76.51
2022-11-03T10:01:18.423Z,76.61
2022-11-03T10:02:18.392Z,76.31
2022-11-03T10:03:18.289Z,76.51
2022-11-03T10:04:18.262Z,76.40
2022-11-03T10:05:18.298Z,76.10
2022-11-03T10:06:18.234Z,76.20
2022-11-03T10:07:18.243Z,75.96
2022-11-03T10:08:21.489Z,76.37
2022-11-03T10:09:18.206Z,76.17
2022-11-03T10:10:18.183Z,75.86
2022-11-03T10:11:18.174Z,75.46
2022-11-03T10:12:18.183Z,74.95
2022-11-03T10:13:18.144Z,75.05
2022-11-03T10:14:18.125Z,74.95
2022-11-03T10:15:18.133Z,75.15
2022-11-03T10:16:18.106Z,74.44
2022-11-03T10:17:18.104Z,74.65
2022-11-03T10:18:18.076Z,74.44
2022-11-03T10:19:18.083Z,74.04
2022-11-03T10:20:18.103Z,74.04
2022-11-03T10:21:18.035Z,73.83
2022-11-03T10:22:18.035Z,73.73
2022-11-03T10:23:18.016Z,73.73
2022-11-03T10:24:17.998Z,73.73
2022-11-03T10:25:17.988Z,73.93
2022-11-03T10:26:17.973Z,73.53
2022-11-03T10:27:17.977Z,73.22
2022-11-03T10:28:17.947Z,73.02
2022-11-03T10:30:17.935Z,73.22
2022-11-03T10:31:17.909Z,73.02
2022-11-03T10:32:17.904Z,73.53
2022-11-03T10:33:17.885Z,72.92
2022-11-03T10:34:17.858Z,73.02
2022-11-03T10:35:17.860Z,73.12
2022-11-03T10:36:17.838Z,73.33
2022-11-03T10:37:17.843Z,72.72
2022-11-03T10:38:17.817Z,72.99
2022-11-03T10:39:17.806Z,72.78
2022-11-03T10:40:46.831Z,72.78
2022-11-03T10:41:18.778Z,72.48
2022-11-03T10:42:17.779Z,73.39
2022-11-03T10:43:17.750Z,72.89
2022-11-03T10:44:17.730Z,72.58
2022-11-03T10:45:17.734Z,72.65
2022-11-03T10:46:36.573Z,72.38
2022-11-03T10:47:18.714Z,72.58
2022-11-03T10:48:17.681Z,72.28
2022-11-03T10:49:17.670Z,71.57
2022-11-03T10:50:17.651Z,71.67
2022-11-03T10:51:17.644Z,72.17
2022-11-03T10:52:17.642Z,72.78
2022-11-03T10:53:17.640Z,72.17
2022-11-03T10:54:17.605Z,72.01
2022-11-03T10:55:20.617Z,72.01
2022-11-03T10:56:18.573Z,72.01
2022-11-03T10:57:17.582Z,72.38
2022-11-03T10:58:17.543Z,72.38
2022-11-03T10:59:17.533Z,71.47
2022-11-03T11:00:17.514Z,71.80
2022-11-03T11:01:17.622Z,71.91
2022-11-03T11:02:17.598Z,72.01
2022-11-03T11:03:20.648Z,72.21
2022-11-03T11:04:17.541Z,71.97
2022-11-03T11:05:17.454Z,71.77
2022-11-03T11:06:17.437Z,71.77
2022-11-03T11:07:17.443Z,72.08
2022-11-03T11:08:17.476Z,71.57
2022-11-03T11:09:17.404Z,71.67
2022-11-03T11:10:17.386Z,71.77
2022-11-03T11:11:17.375Z,71.67
2022-11-03T11:12:17.376Z,71.06
2022-11-03T11:13:17.346Z,70.76
2022-11-03T11:14:17.327Z,70.96
2022-11-03T11:15:17.316Z,70.42
2022-11-03T11:16:17.307Z,71.03
2022-11-03T11:17:17.310Z,70.62
2022-11-03T11:18:17.302Z,70.29
2022-11-03T11:19:17.267Z,70.59
2022-11-03T11:20:17.254Z,69.54
2022-11-03T11:21:17.248Z,69.41
2022-11-03T11:22:17.247Z,68.87
2022-11-03T11:23:17.216Z,68.06
2022-11-03T11:24:17.199Z,67.55
2022-11-03T11:25:17.190Z,67.76
2022-11-03T11:26:17.176Z,66.95
2022-11-03T11:27:17.179Z,67.52
2022-11-03T11:28:17.148Z,67.66
2022-11-03T11:29:17.139Z,67.55
2022-11-03T11:30:17.119Z,68.80
2022-11-03T11:31:17.120Z,68.97
2022-11-03T11:32:17.110Z,68.80
2022-11-03T11:33:17.087Z,69.10
2022-11-03T11:34:17.091Z,69.54
2022-11-03T11:35:17.059Z,69.74
2022-11-03T11:36:17.059Z,70.25
2022-11-03T11:37:17.041Z,69.54
2022-11-03T11:38:17.012Z,70.36
2022-11-03T11:39:17.001Z,70.36
2022-11-03T11:40:16.984Z,69.78
2022-11-03T11:41:16.986Z,69.98
2022-11-03T11:42:17.037Z,70.18
2022-11-03T11:43:16.949Z,70.69
2022-11-03T11:44:16.934Z,70.79
2022-11-03T11:45:16.924Z,70.49
2022-11-03T11:46:16.913Z,70.59
2022-11-03T11:47:16.924Z,70.69
2022-11-03T11:48:18.946Z,71.00
2022-11-03T11:49:16.864Z,71.00
2022-11-03T11:50:16.854Z,71.00
2022-11-03T11:51:16.845Z,70.93
2022-11-03T11:52:19.266Z,70.93
2022-11-03T11:53:16.824Z,71.33
2022-11-03T11:54:18.147Z,71.53
2022-11-03T11:55:16.805Z,71.13
2022-11-03T11:56:16.782Z,71.53
2022-11-03T11:57:16.785Z,71.94
2022-11-03T11:58:16.745Z,71.84
2022-11-03T11:59:21.438Z,71.33
2022-11-03T12:00:17.728Z,71.03
2022-11-03T12:01:23.778Z,71.13
2022-11-03T12:02:16.720Z,71.44
2022-11-03T12:03:16.733Z,71.13
2022-11-03T12:05:16.670Z,71.77
2022-11-03T12:06:16.656Z,71.67
2022-11-03T12:07:16.670Z,71.67
2022-11-03T12:08:16.616Z,72.08
2022-11-03T12:09:16.673Z,72.48
2022-11-03T12:10:16.589Z,72.38
2022-11-03T12:11:16.626Z,72.68
2022-11-03T12:12:16.587Z,72.48
2022-11-03T12:13:16.556Z,72.58
2022-11-03T12:14:16.559Z,72.48
2022-11-03T12:15:16.527Z,72.28
2022-11-03T12:16:16.508Z,72.61
2022-11-03T12:17:16.511Z,72.48
2022-11-03T12:18:16.491Z,72.28
2022-11-03T12:19:16.479Z,72.48
2022-11-03T12:20:16.456Z,72.17
2022-11-03T12:21:16.438Z,72.68
2022-11-03T12:22:16.439Z,72.08
2022-11-03T12:23:16.418Z,71.88
2022-11-03T12:24:16.420Z,71.88
2022-11-03T12:25:16.410Z,71.67
2022-11-03T12:26:16.379Z,72.28
2022-11-03T12:27:16.381Z,71.77
2022-11-03T12:28:16.349Z,72.38
2022-11-03T12:29:16.337Z,71.73
2022-11-03T12:30:16.327Z,71.23
2022-11-03T12:31:16.319Z,71.23
2022-11-03T12:32:32.325Z,71.23
2022-11-03T12:33:17.282Z,71.64
2022-11-03T12:34:16.268Z,71.53
2022-11-03T12:35:16.262Z,71.03
2022-11-03T12:36:16.242Z,71.33
2022-11-03T12:37:16.254Z,71.73
2022-11-03T12:38:16.213Z,71.44
2022-11-03T12:39:16.212Z,71.53
2022-11-03T12:40:16.183Z,71.44
2022-11-03T12:41:16.173Z,71.23
2022-11-03T12:42:16.182Z,71.06
2022-11-03T12:43:16.153Z,71.47
2022-11-03T12:44:16.180Z,71.57
2022-11-03T12:45:16.123Z,72.28
2022-11-03T12:46:16.113Z,71.77
2022-11-03T12:47:16.123Z,71.47
2022-11-03T12:48:16.082Z,72.17
2022-11-03T12:49:16.074Z,71.77
2022-11-03T12:50:16.054Z,71.57
2022-11-03T12:51:16.053Z,72.08
2022-11-03T12:52:16.075Z,72.08
2022-11-03T12:53:16.015Z,72.48
2022-11-03T12:54:16.015Z,72.58
2022-11-03T12:55:16.082Z,71.57
2022-11-03T12:56:15.980Z,71.97
2022-11-03T12:57:15.986Z,72.28
2022-11-03T12:58:15.956Z,72.48